Time;durP1;ratioP1;P1;durP2;ratioP2;P2;SDS_P1;SDS_P2;PMS_P1;PMS_P2;Temp;Humidity;BMP_temperature;BMP_pressure;BME280_temperature;BME280_humidity;BME280_pressure;Samples;Min_cycle;Max_cycle;Signal;HPM_P1;HPM_P2
2022/05/10 00:00:24;;;;;;;12.90;4.45;;;;;;;12.01;50.03;95906.25;5048979;28;20025;-75
2022/05/10 00:02:51;;;;;;;6.70;3.90;;;;;;;11.97;50.98;95903.91;5066256;28;20040;-73
2022/05/10 00:05:20;;;;;;;6.50;3.50;;;;;;;11.91;50.86;95906.47;5032007;28;20040;-74
2022/05/10 00:07:46;;;;;;;8.55;4.38;;;;;;;11.83;50.33;95899.25;5048471;28;20025;-74
2022/05/10 00:10:11;;;;;;;8.13;4.00;;;;;;;11.75;50.58;95894.75;5048618;28;20024;-75
2022/05/10 00:12:37;;;;;;;8.20;3.90;;;;;;;11.72;50.64;95901.31;5048422;28;20112;-75
2022/05/10 00:15:03;;;;;;;6.72;3.65;;;;;;;11.70;50.88;95899.81;5066901;28;20115;-74
2022/05/10 00:17:32;;;;;;;6.88;3.40;;;;;;;11.65;50.67;95897.63;5065482;28;20028;-74
2022/05/10 00:19:57;;;;;;;8.18;4.20;;;;;;;11.56;51.00;95904.06;5031899;28;20115;-74
2022/05/10 00:22:23;;;;;;;7.50;3.38;;;;;;;11.42;51.07;95900.19;5048494;28;20024;-75
2022/05/10 00:24:50;;;;;;;8.23;3.88;;;;;;;11.40;50.98;95897.69;5048007;28;20029;-74
2022/05/10 00:27:16;;;;;;;10.00;3.80;;;;;;;11.41;51.24;95901.22;5066274;28;20028;-76
2022/05/10 00:29:41;;;;;;;8.18;3.97;;;;;;;11.34;51.17;95891.16;5065916;28;20078;-74
2022/05/10 00:32:07;;;;;;;6.10;3.60;;;;;;;11.38;51.32;95902.41;5048162;28;20051;-75
2022/05/10 00:34:34;;;;;;;7.90;3.78;;;;;;;11.38;51.60;95902.41;5048407;28;20102;-75
2022/05/10 00:37:00;;;;;;;6.32;3.53;;;;;;;11.45;50.82;95903.38;5048244;28;20483;-74
2022/05/10 00:39:26;;;;;;;5.75;3.88;;;;;;;11.49;50.66;95902.03;5031726;28;20032;-73
2022/05/10 00:42:03;;;;;;;7.88;3.80;;;;;;;11.20;51.85;95906.13;5065625;28;20051;-75
2022/05/10 00:44:31;;;;;;;5.22;3.35;;;;;;;11.18;51.82;95900.06;5015203;28;21051;-75
2022/05/10 00:47:29;;;;;;;6.80;4.07;;;;;;;11.10;52.05;95905.44;5047880;28;20059;-75
2022/05/10 00:49:54;;;;;;;10.30;4.35;;;;;;;11.02;52.22;95895.56;5044186;28;20102;-74
2022/05/10 00:52:31;;;;;;;5.40;3.83;;;;;;;11.02;52.53;95903.59;5065901;28;20032;-75
2022/05/10 00:55:08;;;;;;;6.75;3.47;;;;;;;11.00;52.23;95895.72;5065303;28;20033;-73
2022/05/10 00:57:42;;;;;;;6.88;3.80;;;;;;;10.93;52.81;95894.69;5031372;28;20115;-74
2022/05/10 01:00:18;;;;;;;6.97;3.70;;;;;;;10.95;52.89;95891.84;5031129;28;20032;-75
2022/05/10 01:02:47;;;;;;;6.53;3.60;;;;;;;10.82;53.60;95892.34;5048975;28;20036;-74
2022/05/10 01:05:24;;;;;;;5.93;3.40;;;;;;;10.72;53.00;95888.00;5065224;28;20040;-76
2022/05/10 01:08:23;;;;;;;5.57;3.88;;;;;;;10.72;52.80;95881.81;5065862;28;20032;-74
2022/05/10 01:11:10;;;;;;;6.18;3.28;;;;;;;10.73;52.41;95891.53;5065625;28;20476;-74
2022/05/10 01:13:37;;;;;;;11.45;3.65;;;;;;;10.68;53.00;95893.84;5047984;28;20503;-74
2022/05/10 01:16:07;;;;;;;8.55;3.90;;;;;;;10.66;52.87;95890.50;5047057;28;20024;-74
2022/05/10 01:18:32;;;;;;;6.22;4.00;;;;;;;10.67;52.60;95886.81;5047387;28;20081;-74
2022/05/10 01:21:09;;;;;;;7.32;3.95;;;;;;;10.66;52.58;95885.13;5046987;28;20025;-73
2022/05/10 01:23:52;;;;;;;4.93;3.45;;;;;;;10.57;52.92;95887.81;5048729;28;20028;-74
2022/05/10 01:26:51;;;;;;;8.70;3.72;;;;;;;10.44;52.66;95885.59;5065179;28;20024;-74
2022/05/10 01:29:42;;;;;;;8.30;3.70;;;;;;;10.34;53.34;95879.53;5064476;28;20040;-74
2022/05/10 01:34:56;;;;;;;9.38;4.07;;;;;;;10.25;54.15;95886.72;5050204;28;20125;-75
2022/05/10 01:37:24;;;;;;;6.25;3.50;;;;;;;10.22;54.57;95885.19;5030221;28;20032;-75
2022/05/10 01:39:52;;;;;;;7.93;4.13;;;;;;;10.23;54.66;95881.53;5047406;28;20094;-74
2022/05/10 01:42:30;;;;;;;10.20;4.45;;;;;;;10.28;54.56;95883.72;5030243;28;20028;-75
2022/05/10 01:45:04;;;;;;;9.25;4.63;;;;;;;10.29;54.47;95881.84;5046753;28;20040;-74
2022/05/10 01:47:35;;;;;;;7.70;4.15;;;;;;;10.23;54.54;95881.53;5047060;28;20024;-76
2022/05/10 01:50:13;;;;;;;11.15;4.28;;;;;;;10.16;54.70;95872.44;5031213;28;20021;-74
2022/05/10 01:52:43;;;;;;;7.30;4.18;;;;;;;10.14;55.03;95877.97;5031085;28;20111;-75
2022/05/10 01:55:27;;;;;;;6.43;3.80;;;;;;;10.12;54.96;95871.13;5030316;28;20024;-75
2022/05/10 01:57:53;;;;;;;9.18;4.85;;;;;;;10.06;55.63;95879.81;5064932;28;20036;-74
2022/05/10 02:00:21;;;;;;;9.32;4.07;;;;;;;10.06;55.37;95874.44;5029972;28;20017;-74
2022/05/10 02:03:28;;;;;;;10.13;4.18;;;;;;;10.08;55.08;95870.59;5030514;28;20036;-73
2022/05/10 02:05:59;;;;;;;7.15;3.47;;;;;;;10.04;54.99;95874.63;5032882;28;20408;-74
2022/05/10 02:08:28;;;;;;;8.40;3.53;;;;;;;10.00;54.84;95870.56;5064440;28;20031;-74
2022/05/10 02:10:53;;;;;;;9.23;3.95;;;;;;;10.02;55.13;95872.09;5029857;28;20082;-73
2022/05/10 02:13:59;;;;;;;8.55;3.92;;;;;;;9.97;55.87;95873.56;5046516;28;20411;-74
2022/05/10 02:16:32;;;;;;;11.15;4.03;;;;;;;9.84;56.19;95872.19;5032825;28;20345;-74
2022/05/10 02:19:00;;;;;;;7.72;4.22;;;;;;;9.82;55.66;95874.19;5030531;28;20032;-75
2022/05/10 02:21:30;;;;;;;8.43;4.05;;;;;;;9.80;56.10;95878.03;5029964;28;20497;-74
2022/05/10 02:24:24;;;;;;;5.45;3.42;;;;;;;9.81;56.07;95875.19;5046535;28;20055;-74
2022/05/10 02:26:58;;;;;;;5.20;3.75;;;;;;;9.83;56.34;95872.34;5062322;28;20124;-75
2022/05/10 02:29:35;;;;;;;9.57;4.32;;;;;;;9.79;56.72;95877.19;5047542;28;20037;-74
2022/05/10 02:34:53;;;;;;;6.15;3.88;;;;;;;9.80;55.44;95872.69;5036283;28;20098;-74
2022/05/10 02:37:18;;;;;;;6.35;3.50;;;;;;;9.80;54.86;95868.13;5046079;28;20036;-75
2022/05/10 02:39:44;;;;;;;8.55;3.80;;;;;;;9.73;54.61;95873.31;5064620;28;20526;-74
2022/05/10 02:42:11;;;;;;;9.40;4.47;;;;;;;9.67;54.99;95873.13;5050319;28;20024;-74
2022/05/10 02:44:37;;;;;;;6.50;4.00;;;;;;;9.59;55.13;95881.97;5050200;28;20032;-73
2022/05/10 02:47:06;;;;;;;7.72;4.22;;;;;;;9.58;54.77;95877.59;5050452;28;20084;-74
2022/05/10 02:49:32;;;;;;;6.25;3.83;;;;;;;9.56;55.00;95872.38;5049884;28;20062;-73
2022/05/10 02:51:58;;;;;;;8.98;4.13;;;;;;;9.51;55.26;95880.91;5050240;28;20035;-74
2022/05/10 02:54:23;;;;;;;5.90;3.83;;;;;;;9.46;55.66;95880.53;5068153;28;20016;-74
2022/05/10 02:56:48;;;;;;;9.55;3.83;;;;;;;9.45;55.41;95886.06;5049918;28;20414;-75
2022/05/10 02:59:17;;;;;;;12.35;4.00;;;;;;;9.46;55.53;95883.22;5049988;28;20549;-72
2022/05/10 03:01:56;;;;;;;5.13;3.42;;;;;;;9.36;55.34;95882.50;5033759;28;20040;-74
2022/05/10 03:04:22;;;;;;;8.45;3.58;;;;;;;9.22;55.49;95875.91;5049874;28;20028;-74
2022/05/10 03:06:47;;;;;;;7.25;3.47;;;;;;;9.18;56.17;95886.06;5049801;28;20056;-74
2022/05/10 03:09:13;;;;;;;7.95;4.20;;;;;;;9.17;56.31;95878.22;5049740;28;20033;-76
2022/05/10 03:11:39;;;;;;;6.95;4.10;;;;;;;9.12;56.50;95884.88;5032718;28;20062;-75
2022/05/10 03:14:04;;;;;;;8.48;4.10;;;;;;;9.08;56.92;95885.31;5049838;28;20035;-75
2022/05/10 03:16:30;;;;;;;6.97;3.60;;;;;;;9.07;57.47;95887.19;5033203;28;20538;-75
2022/05/10 03:18:55;;;;;;;8.40;3.47;;;;;;;9.10;57.49;95883.34;5050147;28;20048;-75
2022/05/10 03:21:21;;;;;;;6.07;3.25;;;;;;;9.20;57.37;95881.41;5049677;28;20380;-75
2022/05/10 03:23:46;;;;;;;10.25;3.78;;;;;;;9.22;57.36;95882.06;5067322;28;20350;-75
2022/05/10 03:26:14;;;;;;;6.95;3.85;;;;;;;9.21;57.33;95884.91;5032882;28;20029;-74
2022/05/10 03:28:39;;;;;;;6.78;3.70;;;;;;;9.22;57.34;95892.78;5049392;28;20983;-74
2022/05/10 03:31:05;;;;;;;7.72;3.70;;;;;;;9.26;56.54;95887.97;5049462;28;20035;-73
2022/05/10 03:33:31;;;;;;;9.20;4.30;;;;;;;9.21;57.30;95891.09;5016403;28;20055;-74
2022/05/10 03:35:56;;;;;;;7.70;4.18;;;;;;;9.19;57.54;95890.41;5049111;28;20505;-76
2022/05/10 03:38:22;;;;;;;6.80;4.25;;;;;;;9.24;56.73;95901.50;5049248;28;20025;-74
2022/05/10 03:40:47;;;;;;;18.30;5.07;;;;;;;9.27;56.14;95900.34;5067277;28;20025;-76
2022/05/10 03:43:13;;;;;;;7.95;4.30;;;;;;;9.31;56.36;95900.88;5049197;28;20021;-74
2022/05/10 03:45:38;;;;;;;9.27;4.40;;;;;;;9.30;55.87;95899.19;5032416;28;20037;-74
2022/05/10 03:48:04;;;;;;;10.00;4.40;;;;;;;9.25;56.01;95897.81;5067112;28;20052;-75
2022/05/10 03:50:29;;;;;;;8.73;3.67;;;;;;;9.20;56.17;95897.47;5066744;28;20029;-75
2022/05/10 03:52:55;;;;;;;17.88;4.38;;;;;;;9.20;56.66;95894.78;5066659;28;20028;-74
2022/05/10 03:55:23;;;;;;;7.22;3.60;;;;;;;9.24;56.72;95901.50;5048892;28;20115;-75
2022/05/10 03:57:49;;;;;;;8.70;3.83;;;;;;;9.25;56.93;95900.50;5032453;28;20078;-74
2022/05/10 04:00:17;;;;;;;7.78;3.80;;;;;;;9.26;56.24;95904.88;5049174;28;20315;-74
2022/05/10 04:02:43;;;;;;;10.00;3.97;;;;;;;9.27;56.47;95905.69;5048937;28;20028;-75
2022/05/10 04:05:08;;;;;;;9.70;4.00;;;;;;;9.25;55.75;95905.03;5015505;28;20075;-75
2022/05/10 04:07:34;;;;;;;7.68;3.80;;;;;;;9.23;55.87;95898.97;5048452;28;20041;-75
2022/05/10 04:09:59;;;;;;;14.65;4.53;;;;;;;9.33;55.73;95902.41;5048390;28;20502;-74
2022/05/10 04:12:25;;;;;;;9.98;4.63;;;;;;;9.43;55.46;95904.94;5066969;28;20020;-73
2022/05/10 04:14:50;;;;;;;8.85;4.15;;;;;;;9.57;55.24;95916.94;5066673;28;20031;-75
2022/05/10 04:17:15;;;;;;;9.18;4.05;;;;;;;9.72;55.08;95919.84;5031877;28;20043;-75
2022/05/10 04:19:41;;;;;;;9.27;4.40;;;;;;;9.93;54.54;95923.13;5066685;28;20044;-76
2022/05/10 04:22:06;;;;;;;11.02;4.50;;;;;;;10.05;54.46;95919.16;5066145;28;20025;-76
2022/05/10 04:24:32;;;;;;;9.23;4.13;;;;;;;10.23;54.39;95923.56;5066554;28;20044;-74
2022/05/10 04:26:57;;;;;;;14.45;4.13;;;;;;;10.42;53.49;95926.97;5031398;28;20032;-75
2022/05/10 04:29:23;;;;;;;12.27;4.68;;;;;;;10.49;53.79;95926.19;5066231;28;20489;-75
2022/05/10 04:31:48;;;;;;;10.93;4.47;;;;;;;10.74;53.07;95918.19;5065984;28;20545;-75
2022/05/10 04:34:14;;;;;;;8.68;3.97;;;;;;;10.93;52.77;95921.53;5048365;28;20491;-74
2022/05/10 04:36:39;;;;;;;9.35;5.28;;;;;;;11.13;52.59;95924.75;5048256;28;20040;-76
2022/05/10 04:39:05;;;;;;;6.75;4.25;;;;;;;11.11;53.35;95925.91;5048295;28;20473;-76
2022/05/10 04:41:33;;;;;;;7.93;4.47;;;;;;;11.30;53.08;95926.59;5048150;28;20024;-76
2022/05/10 04:44:04;;;;;;;10.27;4.53;;;;;;;11.57;52.31;95928.06;5065666;28;20028;-75
2022/05/10 04:46:30;;;;;;;9.98;4.55;;;;;;;11.85;51.39;95924.09;5031461;28;20032;-75
2022/05/10 04:48:56;;;;;;;11.18;4.15;;;;;;;12.03;51.30;95918.50;5031029;28;20111;-75
2022/05/10 04:51:22;;;;;;;10.18;4.38;;;;;;;12.27;50.46;95922.13;5031448;28;20071;-75
2022/05/10 04:53:47;;;;;;;9.10;4.28;;;;;;;12.48;50.45;95924.19;5048086;28;20029;-75
2022/05/10 04:56:13;;;;;;;13.82;5.00;;;;;;;12.67;50.26;95921.25;5065475;28;20400;-75
2022/05/10 04:58:38;;;;;;;8.55;4.47;;;;;;;12.82;51.13;95924.84;5065870;28;20522;-74
2022/05/10 05:01:06;;;;;;;9.35;4.50;;;;;;;12.96;51.01;95925.09;5065375;28;20032;-74
2022/05/10 05:03:31;;;;;;;7.25;4.20;;;;;;;13.10;50.27;95928.84;5065113;28;20116;-74
2022/05/10 05:05:57;;;;;;;7.63;5.88;;;;;;;13.28;50.11;95935.75;5064783;28;20040;-74
2022/05/10 05:08:22;;;;;;;11.20;4.93;;;;;;;13.46;49.17;95927.34;5064661;28;20048;-73
2022/05/10 05:10:47;;;;;;;8.93;4.60;;;;;;;13.62;47.89;95925.53;5065679;28;20025;-74
2022/05/10 05:13:16;;;;;;;12.80;4.78;;;;;;;13.86;47.46;95929.84;5047348;28;20041;-75
2022/05/10 05:15:42;;;;;;;10.88;4.43;;;;;;;14.02;47.01;95933.38;5030761;28;20514;-77
2022/05/10 05:18:09;;;;;;;9.82;4.72;;;;;;;14.24;46.22;95930.72;5013885;28;20125;-73
2022/05/10 05:20:35;;;;;;;8.25;4.72;;;;;;;14.38;45.95;95927.19;5047794;28;20016;-74
2022/05/10 05:23:01;;;;;;;9.63;5.13;;;;;;;14.55;46.12;95940.47;5065042;28;20113;-75
2022/05/10 05:25:27;;;;;;;11.38;5.00;;;;;;;14.75;45.31;95926.38;5047128;28;20032;-75
2022/05/10 05:27:52;;;;;;;10.57;4.75;;;;;;;14.98;44.73;95920.81;5047260;28;20021;-75
2022/05/10 05:30:18;;;;;;;12.73;4.78;;;;;;;15.12;44.52;95927.16;5046957;28;20482;-75
2022/05/10 05:32:43;;;;;;;11.98;5.60;;;;;;;15.29;43.85;95927.75;5047402;28;20466;-75
2022/05/10 05:35:10;;;;;;;8.50;4.78;;;;;;;15.42;43.89;95921.63;5046927;28;20024;-74
2022/05/10 05:37:37;;;;;;;14.95;5.22;;;;;;;15.62;42.79;95926.31;5065353;28;20051;-74
2022/05/10 05:40:13;;;;;;;16.50;5.85;;;;;;;15.75;42.01;95924.75;5065147;28;20519;-75
2022/05/10 05:42:38;;;;;;;8.55;4.80;;;;;;;15.87;42.84;95923.16;5030632;28;20040;-75
2022/05/10 05:45:04;;;;;;;10.80;5.38;;;;;;;15.96;41.73;95918.41;5046882;28;20804;-75
2022/05/10 05:47:30;;;;;;;12.18;5.72;;;;;;;16.08;41.74;95924.16;5047085;28;20036;-75
2022/05/10 05:49:55;;;;;;;12.60;4.88;;;;;;;16.11;43.19;95921.03;5030301;28;20024;-75
2022/05/10 05:52:22;;;;;;;12.05;5.05;;;;;;;16.10;43.23;95919.38;5046782;28;20051;-74
2022/05/10 05:54:48;;;;;;;12.52;5.22;;;;;;;16.30;41.62;95902.38;5065262;28;20063;-76
2022/05/10 05:57:14;;;;;;;9.73;4.97;;;;;;;16.53;41.14;95909.34;5064438;28;20059;-75
2022/05/10 05:59:39;;;;;;;10.10;4.68;;;;;;;16.61;40.36;95916.44;5030360;28;20349;-74
2022/05/10 06:02:12;;;;;;;14.38;4.80;;;;;;;16.67;40.28;95913.78;5046781;28;20491;-75
2022/05/10 06:04:37;;;;;;;;;;;;;;;16.81;40.19;95911.09;5046910;28;20036;-75
2022/05/10 06:07:03;;;;;;;10.48;4.75;;;;;;;16.98;39.61;95913.41;5064796;28;19912;-75
2022/05/10 06:09:28;;;;;;;11.15;4.32;;;;;;;17.14;39.53;95910.34;5046161;28;20075;-74
2022/05/10 06:11:54;;;;;;;9.57;4.10;;;;;;;17.24;39.24;95909.94;5046859;28;20507;-75
2022/05/10 06:14:19;;;;;;;8.75;4.07;;;;;;;17.34;38.89;95920.38;5046472;28;20024;-76
2022/05/10 06:16:44;;;;;;;9.55;3.95;;;;;;;17.42;39.08;95916.63;5068233;28;20040;-78
2022/05/10 06:19:11;;;;;;;8.82;4.28;;;;;;;17.50;39.13;95915.56;5050829;28;20028;-75
2022/05/10 06:21:36;;;;;;;7.75;4.32;;;;;;;17.59;39.62;95917.03;5050409;28;20103;-75
2022/05/10 06:24:02;;;;;;;8.60;4.50;;;;;;;17.59;39.97;95911.59;5068442;28;20115;-75
2022/05/10 06:26:27;;;;;;;11.52;4.90;;;;;;;17.69;40.10;95911.19;5068129;28;20035;-76
2022/05/10 06:28:52;;;;;;;10.30;4.57;;;;;;;17.52;40.19;95910.78;5050461;28;20025;-76
2022/05/10 06:31:18;;;;;;;13.00;4.70;;;;;;;17.08;40.82;95903.06;5050537;28;20036;-75
2022/05/10 06:33:43;;;;;;;12.65;5.13;;;;;;;16.99;40.89;95912.41;5068617;28;20025;-78
2022/05/10 06:36:09;;;;;;;14.48;5.18;;;;;;;17.33;41.63;95913.28;5068332;28;20411;-75
2022/05/10 06:38:34;;;;;;;10.30;4.68;;;;;;;17.61;39.80;95903.25;5050248;28;20024;-75
2022/05/10 06:41:01;;;;;;;17.20;4.20;;;;;;;17.84;39.38;95900.09;5033727;28;20047;-75
2022/05/10 06:43:28;;;;;;;15.50;3.72;;;;;;;18.04;38.02;95901.91;5033384;28;20044;-75
2022/05/10 06:45:57;;;;;;;9.38;2.78;;;;;;;18.17;37.68;95901.06;5068015;28;20032;-75
2022/05/10 06:48:23;;;;;;;11.18;3.45;;;;;;;18.27;37.30;95906.91;5050824;28;20054;-75
2022/05/10 06:50:48;;;;;;;6.47;3.45;;;;;;;18.35;37.91;95908.53;5050281;28;20075;-76
2022/05/10 06:53:14;;;;;;;10.73;3.42;;;;;;;18.52;38.02;95897.19;5068240;28;20126;-76
2022/05/10 06:55:39;;;;;;;14.23;3.47;;;;;;;18.50;37.42;95900.13;5067905;28;20418;-75
2022/05/10 06:58:05;;;;;;;12.40;3.70;;;;;;;18.63;37.58;95896.53;5067803;28;20463;-76
2022/05/10 07:00:35;;;;;;;9.15;3.13;;;;;;;18.85;37.32;95898.91;5049707;28;20020;-76
2022/05/10 07:03:12;;;;;;;10.77;3.33;;;;;;;18.96;36.19;95899.25;5049934;28;20028;-75
2022/05/10 07:05:37;;;;;;;10.48;2.95;;;;;;;19.04;36.88;95901.69;5033187;28;20067;-75
2022/05/10 07:08:03;;;;;;;6.32;2.47;;;;;;;19.12;35.83;95897.94;5049520;28;20037;-77
2022/05/10 07:10:28;;;;;;;5.85;2.78;;;;;;;19.13;35.48;95896.88;5049785;28;20180;-75
2022/05/10 07:12:54;;;;;;;5.72;2.70;;;;;;;19.15;35.84;95901.03;5049545;28;20111;-76
2022/05/10 07:15:20;;;;;;;7.93;2.80;;;;;;;18.46;36.06;95901.59;5067319;28;20157;-75
2022/05/10 07:17:45;;;;;;;9.07;2.85;;;;;;;18.44;37.40;95892.84;5032680;28;20025;-75
2022/05/10 07:20:12;;;;;;;11.13;3.00;;;;;;;18.46;37.18;95900.78;5067424;28;20024;-75
2022/05/10 07:22:38;;;;;;;9.15;2.72;;;;;;;18.73;36.33;95901.47;5032750;28;20032;-76
2022/05/10 07:25:04;;;;;;;10.93;3.95;;;;;;;18.97;36.16;95892.78;5032933;28;20056;-76
2022/05/10 07:27:29;;;;;;;9.82;3.17;;;;;;;19.27;35.74;95900.31;5032331;28;20469;-74
2022/05/10 07:29:54;;;;;;;5.97;2.80;;;;;;;19.43;35.58;95895.38;5067492;28;20124;-74
2022/05/10 07:32:21;;;;;;;12.23;3.30;;;;;;;19.44;35.25;95895.16;5067421;28;20028;-75
2022/05/10 07:34:47;;;;;;;19.23;4.15;;;;;;;19.53;34.69;95901.16;5066972;28;20431;-75
2022/05/10 07:37:12;;;;;;;9.55;3.33;;;;;;;19.61;34.72;95898.16;5048983;28;20475;-74
2022/05/10 07:39:38;;;;;;;7.93;2.90;;;;;;;19.77;36.29;95890.47;5067201;28;20102;-76
2022/05/10 07:42:04;;;;;;;8.60;3.97;;;;;;;19.91;35.89;95896.59;5066899;28;20017;-75
2022/05/10 07:44:32;;;;;;;8.23;3.10;;;;;;;19.80;35.73;95891.94;5066918;28;20097;-75
2022/05/10 07:46:58;;;;;;;22.67;3.90;;;;;;;19.95;34.63;95891.56;5048746;28;20404;-76
2022/05/10 07:49:23;;;;;;;11.10;2.70;;;;;;;20.06;34.27;95888.13;5032601;28;20471;-75
2022/05/10 07:51:49;;;;;;;8.45;2.53;;;;;;;20.12;33.47;95887.22;5032478;28;20055;-75
2022/05/10 07:54:14;;;;;;;10.32;2.60;;;;;;;20.25;33.34;95882.66;5032211;28;20407;-75
2022/05/10 07:56:41;;;;;;;9.25;2.50;;;;;;;20.33;33.52;95876.91;5048758;28;20017;-75
2022/05/10 07:59:06;;;;;;;7.38;2.90;;;;;;;20.37;33.48;95878.13;5048592;28;20036;-75
2022/05/10 08:01:32;;;;;;;8.02;2.63;;;;;;;20.40;33.80;95881.44;5048829;28;20024;-74
2022/05/10 08:03:57;;;;;;;13.20;3.00;;;;;;;20.40;33.04;95881.44;5032041;28;20028;-75
2022/05/10 08:06:22;;;;;;;5.82;2.50;;;;;;;20.36;33.47;95876.44;5066681;28;20024;-76
2022/05/10 08:08:49;;;;;;;8.23;2.85;;;;;;;20.42;33.25;95874.72;5032217;28;20142;-76
2022/05/10 08:11:14;;;;;;;4.60;1.98;;;;;;;20.40;32.24;95868.66;5048512;28;20510;-76
2022/05/10 08:13:41;;;;;;;9.07;2.10;;;;;;;19.94;33.49;95873.56;5032163;28;20025;-75
2022/05/10 08:16:08;;;;;;;6.32;1.67;;;;;;;20.15;32.67;95866.88;5031638;28;20451;-75
2022/05/10 08:18:35;;;;;;;6.05;2.10;;;;;;;20.28;32.06;95868.59;5048666;28;20048;-74
2022/05/10 08:21:00;;;;;;;5.88;2.05;;;;;;;20.41;31.91;95862.13;5048413;28;20055;-74
2022/05/10 08:23:28;;;;;;;6.32;1.80;;;;;;;20.59;31.47;95860.44;5048353;28;20479;-75
2022/05/10 08:25:54;;;;;;;12.82;2.03;;;;;;;20.66;31.24;95863.09;5048439;28;20511;-76
2022/05/10 08:28:20;;;;;;;7.40;1.50;;;;;;;20.73;30.16;95861.13;5048359;28;20077;-76
2022/05/10 08:30:46;;;;;;;4.10;1.60;;;;;;;20.80;29.13;95850.94;5066331;28;20462;-76
2022/05/10 08:33:16;;;;;;;6.00;1.80;;;;;;;20.86;30.02;95851.91;5065894;28;20093;-75
2022/05/10 08:35:42;;;;;;;6.63;2.15;;;;;;;20.95;30.18;95853.28;5065907;28;20471;-75
2022/05/10 08:38:07;;;;;;;4.75;2.13;;;;;;;21.12;29.69;95847.97;5064841;28;20035;-76
2022/05/10 08:40:45;;;;;;;5.93;1.70;;;;;;;21.24;28.77;95847.16;5066039;28;20012;-76
2022/05/10 08:43:17;;;;;;;7.63;1.73;;;;;;;21.36;28.97;95850.72;5049435;28;20098;-74
2022/05/10 08:45:44;;;;;;;6.23;2.00;;;;;;;21.28;29.58;95847.53;5032279;28;20029;-75
2022/05/10 08:48:09;;;;;;;5.57;1.60;;;;;;;21.46;27.86;95847.41;5047917;28;20027;-75
2022/05/10 08:50:35;;;;;;;5.75;1.65;;;;;;;21.53;27.58;95844.56;5047942;28;20028;-76
2022/05/10 08:53:01;;;;;;;4.40;1.90;;;;;;;21.48;27.27;95839.00;5065498;28;20071;-76
2022/05/10 08:55:28;;;;;;;4.60;1.60;;;;;;;21.55;27.62;95842.44;5047627;28;20555;-75
2022/05/10 08:58:17;;;;;;;4.15;1.67;;;;;;;21.66;27.80;95839.94;5065440;28;20406;-74
2022/05/10 09:00:52;;;;;;;5.30;1.70;;;;;;;21.72;27.59;95841.72;5037140;28;20484;-76
2022/05/10 09:03:23;;;;;;;3.97;1.77;;;;;;;21.79;27.39;95839.72;5031696;28;20468;-76
2022/05/10 09:05:49;;;;;;;5.60;1.75;;;;;;;21.88;27.59;95829.25;5066029;28;20048;-74
2022/05/10 09:08:31;;;;;;;7.82;1.90;;;;;;;21.95;26.97;95826.41;5046973;28;20491;-76
2022/05/10 09:10:59;;;;;;;4.50;1.95;;;;;;;21.96;26.62;95828.91;5048984;28;20110;-75
2022/05/10 09:13:25;;;;;;;4.70;1.70;;;;;;;21.82;27.97;95828.34;5031120;28;20060;-76
2022/05/10 09:16:01;;;;;;;6.35;2.15;;;;;;;21.81;28.60;95823.94;5047295;28;20078;-77
2022/05/10 09:18:30;;;;;;;6.30;1.90;;;;;;;21.68;27.91;95824.97;5065392;28;20025;-76
2022/05/10 09:21:19;;;;;;;2.25;1.60;;;;;;;21.55;28.90;95823.34;5047390;28;20035;-75
2022/05/10 09:23:59;;;;;;;6.28;2.00;;;;;;;21.84;29.13;95819.91;5065170;28;20032;-75
2022/05/10 09:26:25;;;;;;;3.95;2.33;;;;;;;21.96;28.46;95820.72;5065216;28;20028;-75
2022/05/10 09:28:58;;;;;;;4.65;2.08;;;;;;;22.02;29.44;95818.91;5030722;28;20093;-76
2022/05/10 09:37:20;;;;;;;4.82;2.05;;;;;;;22.03;30.54;95812.38;5049893;28;20479;-77
2022/05/10 09:40:26;;;;;;;4.13;1.83;;;;;;;22.07;27.91;95810.00;5065399;28;20028;-76
2022/05/10 09:42:53;;;;;;;5.65;1.90;;;;;;;22.18;28.81;95803.66;5047461;28;20036;-75
2022/05/10 09:45:23;;;;;;;3.15;1.92;;;;;;;22.21;28.16;95807.84;5029990;28;20016;-75
2022/05/10 09:48:07;;;;;;;4.35;1.90;;;;;;;22.23;29.15;95808.44;5064984;28;20033;-76
2022/05/10 09:50:43;;;;;;;4.57;2.00;;;;;;;22.07;28.78;95810.00;5064512;28;20029;-76
2022/05/10 09:53:14;;;;;;;7.35;2.13;;;;;;;21.94;30.09;95802.91;5031645;28;20470;-75
2022/05/10 09:55:40;;;;;;;4.07;2.10;;;;;;;22.10;30.34;95793.97;5029948;28;20488;-76
2022/05/10 09:58:12;;;;;;;7.88;1.83;;;;;;;22.20;29.30;95784.31;5030357;28;20056;-77
2022/05/10 10:00:38;;;;;;;4.47;1.90;;;;;;;22.30;28.01;95781.78;5047037;28;20024;-77
2022/05/10 10:03:04;;;;;;;6.60;2.00;;;;;;;22.27;29.36;95785.00;5046820;28;20047;-78
2022/05/10 10:05:30;;;;;;;4.20;1.95;;;;;;;22.29;28.29;95782.88;5047014;28;20387;-76
2022/05/10 10:07:57;;;;;;;5.60;1.90;;;;;;;22.38;29.12;95777.00;5030252;28;20099;-74
2022/05/10 10:10:34;;;;;;;3.63;1.83;;;;;;;22.30;28.25;95776.31;5046680;28;20036;-74
2022/05/10 10:13:10;;;;;;;3.42;1.95;;;;;;;22.35;27.71;95773.69;5064395;28;20024;-75
2022/05/10 10:15:41;;;;;;;8.35;5.10;;;;;;;22.12;28.31;95763.66;5046099;28;20041;-75
2022/05/10 10:18:08;;;;;;;4.78;2.22;;;;;;;22.15;28.21;95762.38;5030284;28;20543;-75
2022/05/10 10:20:55;;;;;;;3.17;2.00;;;;;;;22.28;28.17;95762.06;5030114;28;20031;-75
2022/05/10 10:23:27;;;;;;;7.18;1.60;;;;;;;22.41;27.80;95760.94;5046538;28;20107;-75
2022/05/10 10:25:56;;;;;;;5.07;2.17;;;;;;;22.51;28.25;95754.00;5046517;28;20471;-74
2022/05/10 10:28:36;;;;;;;4.18;1.88;;;;;;;22.62;28.22;95755.06;5046503;28;20089;-75
2022/05/10 10:31:09;;;;;;;4.07;1.95;;;;;;;22.55;27.17;95756.03;5013727;28;20078;-76
2022/05/10 10:33:47;;;;;;;3.78;2.17;;;;;;;22.64;26.25;95748.28;5046719;28;20411;-76
2022/05/10 10:36:16;;;;;;;7.65;2.15;;;;;;;22.51;26.78;95743.91;5030277;28;20174;-76
2022/05/10 10:39:03;;;;;;;4.55;2.10;;;;;;;22.63;27.65;95743.06;5046131;28;20071;-76
2022/05/10 10:41:48;;;;;;;4.18;1.90;;;;;;;22.64;27.33;95742.81;5064570;28;20492;-75
2022/05/10 10:44:19;;;;;;;5.20;1.83;;;;;;;22.26;27.40;95736.91;5046658;28;20115;-75
2022/05/10 10:46:47;;;;;;;4.57;1.75;;;;;;;22.35;27.28;95740.06;5046091;28;20028;-74
2022/05/10 10:49:19;;;;;;;3.13;1.45;;;;;;;22.53;27.69;95733.56;5046336;28;20028;-75
2022/05/10 10:51:45;;;;;;;5.03;1.98;;;;;;;22.42;28.75;95735.28;5063793;28;20033;-77
2022/05/10 10:54:20;;;;;;;7.80;2.20;;;;;;;22.39;27.76;95730.31;5046165;28;20036;-75
2022/05/10 10:57:10;;;;;;;3.65;2.22;;;;;;;22.41;27.48;95728.16;5045967;28;20086;-79
2022/05/10 10:59:39;;;;;;;3.10;2.08;;;;;;;22.51;27.64;95721.22;5064030;28;20064;-76
2022/05/10 11:02:08;;;;;;;3.63;2.42;;;;;;;22.69;26.77;95720.19;5048720;28;20488;-75
2022/05/10 11:04:51;;;;;;;5.22;2.08;;;;;;;22.76;25.72;95715.41;5067667;28;20075;-76
2022/05/10 11:07:20;;;;;;;2.70;1.70;;;;;;;22.82;25.45;95716.31;5067775;28;20127;-75
2022/05/10 11:09:52;;;;;;;5.90;1.95;;;;;;;22.67;25.77;95716.88;5067569;28;20056;-76
2022/05/10 11:12:24;;;;;;;;;;;;;;;22.80;25.59;95716.56;5033763;28;20028;-74
2022/05/10 11:15:23;;;;;;;4.38;1.98;;;;;;;22.72;26.22;95706.03;5067648;28;19912;-74
2022/05/10 11:18:23;;;;;;;3.17;1.80;;;;;;;22.72;26.63;95706.03;5051529;28;20121;-76
2022/05/10 11:21:27;;;;;;;4.60;2.10;;;;;;;22.81;27.77;95703.72;5035154;28;20024;-75
2022/05/10 11:24:04;;;;;;;3.70;1.70;;;;;;;22.99;26.72;95699.88;5049214;28;20040;-77
2022/05/10 11:26:45;;;;;;;5.28;2.10;;;;;;;22.95;26.58;95704.22;5049300;28;20024;-77
2022/05/10 11:29:48;;;;;;;7.03;2.38;;;;;;;23.07;27.32;95709.59;5066885;28;20720;-75
2022/05/10 11:32:23;;;;;;;5.50;2.20;;;;;;;23.29;27.59;95706.91;4950161;28;20122;-76
2022/05/10 11:34:54;;;;;;;4.32;1.70;;;;;;;23.41;27.04;95695.03;4950773;28;20030;-77
2022/05/10 11:37:32;;;;;;;2.90;1.90;;;;;;;23.64;27.09;95682.19;5022678;28;20471;-75
2022/05/10 11:40:32;;;;;;;6.82;2.00;;;;;;;23.67;26.53;95679.78;5049377;28;20024;-76
2022/05/10 11:43:12;;;;;;;4.97;2.15;;;;;;;23.55;26.03;95684.56;5034233;28;20012;-76
2022/05/10 11:45:52;;;;;;;4.20;2.00;;;;;;;23.78;26.14;95669.78;5067718;28;20067;-76
2022/05/10 11:48:52;;;;;;;4.65;2.22;;;;;;;23.86;26.38;95675.88;5066909;28;20523;-75
2022/05/10 11:52:15;;;;;;;3.00;1.75;;;;;;;23.65;26.11;95668.25;5067130;28;20412;-76
2022/05/10 11:54:40;;;;;;;6.40;1.77;;;;;;;23.76;24.94;95674.69;5004580;28;20068;-75
2022/05/10 11:57:14;;;;;;;2.58;1.65;;;;;;;23.93;24.29;95662.81;5004209;28;20332;-76
2022/05/10 11:59:41;;;;;;;3.00;1.58;;;;;;;23.75;24.01;95661.22;5003114;28;20098;-75